D Hanis, Texas
Current Conditions -  °F | °C
As of 6:51 PM on Wednesday 26 Nov 2014 (Local Time) from KHDO Reporting Station
Clear Clear  
Wind Chill: 62°   Ceiling: Unl
Heat Index: 62°   Visibility: 10mi
Dew Point: 31°   Wind: 6mph
Humidity: 31%   Direction: 180°S
Pressure: 30.24"   Gusts: NA
Location:  29.3507°N, 99.3117°W
Report Text: KHDO 270051Z AUTO 18005KT 10SM CLR 17/M01 A3024 RMK AO2 SLP237 T01671006 $
Loading
Personal Weather Stations






























Interactive Weather Map New forecast layout! Learn more

10-Day Weather Forecast

Advertisements
Track Severe Weather on mobile